createdAt,value
2023-02-12T00:01:08.916Z,6.70
2023-02-12T00:03:36.713Z,6.70
2023-02-12T00:06:03.871Z,6.70
2023-02-12T00:08:30.650Z,6.70
2023-02-12T00:10:57.523Z,6.70
2023-02-12T00:13:24.275Z,6.70
2023-02-12T00:15:51.059Z,6.80
2023-02-12T00:18:19.972Z,6.70
2023-02-12T00:20:46.642Z,6.70
2023-02-12T00:23:13.400Z,6.70
2023-02-12T00:25:43.191Z,6.70
2023-02-12T00:28:10.043Z,6.80
2023-02-12T00:30:36.870Z,6.80
2023-02-12T00:33:03.842Z,6.80
2023-02-12T00:35:30.589Z,6.90
2023-02-12T00:37:57.456Z,6.80
2023-02-12T00:40:24.354Z,6.80
2023-02-12T00:42:53.445Z,6.80
2023-02-12T00:45:20.612Z,6.80
2023-02-12T00:47:47.311Z,6.80
2023-02-12T00:50:14.068Z,6.70
2023-02-12T00:52:40.774Z,6.70
2023-02-12T00:55:07.782Z,6.70
2023-02-12T00:57:34.450Z,6.70
2023-02-12T01:00:01.126Z,6.70
2023-02-12T01:02:28.061Z,6.70
2023-02-12T01:04:54.910Z,6.70
2023-02-12T01:07:21.818Z,6.70
2023-02-12T01:09:48.663Z,6.70
2023-02-12T01:12:15.368Z,6.70
2023-02-12T01:14:42.039Z,6.70
2023-02-12T01:17:09.590Z,6.70
2023-02-12T01:19:36.288Z,6.70
2023-02-12T01:22:03.333Z,6.70
2023-02-12T01:24:32.561Z,6.70
2023-02-12T01:26:59.247Z,6.80
2023-02-12T01:29:25.976Z,6.70
2023-02-12T01:31:54.937Z,6.80
2023-02-12T01:34:21.707Z,6.80
2023-02-12T01:36:50.557Z,6.70
2023-02-12T01:39:19.384Z,6.80
2023-02-12T01:41:46.272Z,6.70
2023-02-12T01:44:19.575Z,6.70
2023-02-12T01:46:47.988Z,6.70
2023-02-12T01:49:22.784Z,6.70
2023-02-12T01:51:53.238Z,6.70
2023-02-12T01:54:21.773Z,6.70
2023-02-12T01:56:49.197Z,6.60
2023-02-12T01:59:19.898Z,6.60
2023-02-12T02:01:46.659Z,6.60
2023-02-12T02:04:19.063Z,6.60
2023-02-12T02:07:00.986Z,6.60
2023-02-12T02:09:30.160Z,6.60
2023-02-12T02:12:15.948Z,6.60
2023-02-12T02:14:43.049Z,6.60
2023-02-12T02:17:15.952Z,6.70
2023-02-12T02:19:45.462Z,6.60
2023-02-12T02:22:31.159Z,6.70
2023-02-12T02:25:35.536Z,6.60
2023-02-12T02:28:20.858Z,6.60
2023-02-12T02:30:57.762Z,6.60
2023-02-12T02:33:46.272Z,6.60
2023-02-12T02:36:32.662Z,6.60
2023-02-12T02:39:22.249Z,6.60
2023-02-12T02:42:04.118Z,6.60
2023-02-12T02:44:54.998Z,6.60
2023-02-12T02:47:26.383Z,6.60
2023-02-12T02:49:58.950Z,6.60
2023-02-12T02:52:37.315Z,6.60
2023-02-12T02:55:11.003Z,6.60
2023-02-12T02:57:40.397Z,6.60
2023-02-12T03:00:20.385Z,6.60
2023-02-12T03:02:55.477Z,6.60
2023-02-12T03:05:33.484Z,6.60
2023-02-12T03:08:10.315Z,6.60
2023-02-12T03:10:42.266Z,6.60
2023-02-12T03:13:11.819Z,6.60
2023-02-12T03:16:01.773Z,6.70
2023-02-12T03:18:40.271Z,6.70
2023-02-12T03:21:14.127Z,6.70
2023-02-12T03:23:51.931Z,6.60
2023-02-12T03:26:29.040Z,6.60
2023-02-12T03:28:58.219Z,6.60
2023-02-12T03:31:43.824Z,6.60
2023-02-12T03:34:37.976Z,6.60
2023-02-12T03:37:36.906Z,6.60
2023-02-12T03:40:35.428Z,6.60
2023-02-12T03:43:08.805Z,6.60
2023-02-12T03:45:43.357Z,6.60
2023-02-12T03:48:21.445Z,6.60
2023-02-12T03:51:13.973Z,6.70
2023-02-12T03:53:42.653Z,6.60
2023-02-12T03:56:15.334Z,6.70
2023-02-12T03:58:43.605Z,6.70
2023-02-12T04:01:12.029Z,6.70
2023-02-12T04:03:41.697Z,6.70
2023-02-12T04:06:27.744Z,6.70
2023-02-12T04:08:57.441Z,6.70
2023-02-12T04:11:27.043Z,6.70
2023-02-12T04:14:06.147Z,6.70
2023-02-12T04:16:48.730Z,6.70
2023-02-12T04:19:21.866Z,6.70
2023-02-12T04:22:05.232Z,6.70
2023-02-12T04:24:49.076Z,6.70
2023-02-12T04:27:33.908Z,6.60
2023-02-12T04:30:09.171Z,6.60
2023-02-12T04:32:41.337Z,6.60
2023-02-12T04:35:25.396Z,6.60
2023-02-12T04:38:11.528Z,6.70
2023-02-12T04:40:42.533Z,6.60
2023-02-12T04:43:09.319Z,6.60
2023-02-12T04:45:37.103Z,6.60
2023-02-12T04:48:04.977Z,6.60
2023-02-12T04:50:46.549Z,6.70
2023-02-12T04:53:13.282Z,6.60
2023-02-12T04:55:42.446Z,6.60
2023-02-12T04:58:09.325Z,6.60
2023-02-12T05:00:36.111Z,6.60
2023-02-12T05:03:02.884Z,6.60
2023-02-12T05:05:29.735Z,6.60
2023-02-12T05:07:58.658Z,6.60
2023-02-12T05:10:25.423Z,6.70
2023-02-12T05:12:53.575Z,6.60
2023-02-12T05:15:20.603Z,6.60
2023-02-12T05:17:52.188Z,6.60
2023-02-12T05:20:19.130Z,6.60
2023-02-12T05:22:45.776Z,6.50
2023-02-12T05:25:12.421Z,6.60
2023-02-12T05:27:39.122Z,6.60
2023-02-12T05:30:09.527Z,6.60
2023-02-12T05:32:36.544Z,6.60
2023-02-12T05:35:03.357Z,6.60
2023-02-12T05:37:36.155Z,6.60
2023-02-12T05:40:05.643Z,6.60
2023-02-12T05:42:32.433Z,6.60
2023-02-12T05:44:59.101Z,6.50
2023-02-12T05:47:25.861Z,6.50
2023-02-12T05:49:52.600Z,6.50
2023-02-12T05:52:19.236Z,6.50
2023-02-12T05:54:48.717Z,6.50
2023-02-12T05:57:15.371Z,6.50
2023-02-12T05:59:42.027Z,6.50
2023-02-12T06:02:11.245Z,6.50
2023-02-12T06:04:37.955Z,6.50
2023-02-12T06:07:07.374Z,6.50
2023-02-12T06:09:35.215Z,6.60
2023-02-12T06:12:02.002Z,6.60
2023-02-12T06:14:31.466Z,6.50
2023-02-12T06:16:58.770Z,6.60
2023-02-12T06:19:25.536Z,6.60
2023-02-12T06:21:52.244Z,6.60
2023-02-12T06:24:19.143Z,6.60
2023-02-12T06:26:46.045Z,6.60
2023-02-12T06:29:13.330Z,6.60
2023-02-12T06:31:40.176Z,6.60
2023-02-12T06:34:09.224Z,6.60
2023-02-12T06:36:40.757Z,6.60
2023-02-12T06:39:10.880Z,6.60
2023-02-12T06:41:37.596Z,6.60
2023-02-12T06:44:05.211Z,6.60
2023-02-12T06:46:34.552Z,6.60
2023-02-12T06:49:01.563Z,6.60
2023-02-12T06:51:29.540Z,6.60
2023-02-12T06:53:56.972Z,6.70
2023-02-12T06:56:26.612Z,6.70
2023-02-12T06:59:01.144Z,6.70
2023-02-12T07:01:31.496Z,6.60
2023-02-12T07:04:05.454Z,6.60
2023-02-12T07:06:34.596Z,6.60
2023-02-12T07:09:01.613Z,6.70
2023-02-12T07:11:31.626Z,6.70
2023-02-12T07:13:58.686Z,6.70
2023-02-12T07:16:28.347Z,6.70
2023-02-12T07:18:55.277Z,6.70
2023-02-12T07:21:22.410Z,6.80
2023-02-12T07:23:51.807Z,6.80
2023-02-12T07:26:20.601Z,6.80
2023-02-12T07:28:50.286Z,6.80
2023-02-12T07:31:22.718Z,6.90
2023-02-12T07:33:53.671Z,6.90
2023-02-12T07:36:23.946Z,6.90
2023-02-12T07:38:53.530Z,7.00
2023-02-12T07:41:21.677Z,7.00
2023-02-12T07:43:52.847Z,7.00
2023-02-12T07:46:29.902Z,7.00
2023-02-12T07:48:59.085Z,7.00
2023-02-12T07:51:29.196Z,7.00
2023-02-12T07:53:56.134Z,7.00
2023-02-12T07:56:25.397Z,7.00
2023-02-12T07:58:53.834Z,7.10
2023-02-12T08:01:35.016Z,7.10
2023-02-12T08:04:06.594Z,7.20
2023-02-12T08:06:36.672Z,7.20
2023-02-12T08:09:09.839Z,7.20
2023-02-12T08:11:38.069Z,7.20
2023-02-12T08:14:05.345Z,7.20
2023-02-12T08:16:36.851Z,7.30
2023-02-12T08:19:16.517Z,7.30
2023-02-12T08:21:47.272Z,7.40
2023-02-12T08:24:16.306Z,7.40
2023-02-12T08:26:45.564Z,7.50
2023-02-12T08:29:15.579Z,7.50
2023-02-12T08:31:43.870Z,7.60
2023-02-12T08:34:19.564Z,7.70
2023-02-12T08:36:48.263Z,7.80
2023-02-12T08:39:18.241Z,7.80
2023-02-12T08:41:45.267Z,7.90
2023-02-12T08:44:13.705Z,8.00
2023-02-12T08:46:45.968Z,8.00
2023-02-12T08:49:15.384Z,8.10
2023-02-12T08:51:46.319Z,8.10
2023-02-12T08:54:18.190Z,8.20
2023-02-12T08:56:45.474Z,8.20
2023-02-12T08:59:14.492Z,8.20
2023-02-12T09:01:42.581Z,8.30
2023-02-12T09:04:17.978Z,8.20
2023-02-12T09:06:46.242Z,8.30
2023-02-12T09:09:13.404Z,8.30
2023-02-12T09:11:40.316Z,8.40
2023-02-12T09:14:10.800Z,8.40
2023-02-12T09:16:40.299Z,8.40
2023-02-12T09:19:11.925Z,8.40
2023-02-12T09:21:41.668Z,8.50
2023-02-12T09:24:13.533Z,8.50
2023-02-12T09:26:40.443Z,8.50
2023-02-12T09:29:07.102Z,8.50
2023-02-12T09:31:33.900Z,8.60
2023-02-12T09:34:08.362Z,8.60
2023-02-12T09:36:36.399Z,8.60
2023-02-12T09:39:05.496Z,8.60
2023-02-12T09:41:58.046Z,8.60
2023-02-12T09:44:47.578Z,8.60
2023-02-12T09:47:28.671Z,8.60
2023-02-12T09:50:17.240Z,8.70
2023-02-12T09:52:44.472Z,8.70
2023-02-12T09:55:22.540Z,8.80
2023-02-12T09:57:53.707Z,8.80
2023-02-12T10:00:32.823Z,8.90
2023-02-12T10:03:05.903Z,9.00
2023-02-12T10:05:47.184Z,9.10
2023-02-12T10:08:13.796Z,9.10
2023-02-12T10:10:40.520Z,9.10
2023-02-12T10:13:32.561Z,9.20
2023-02-12T10:16:27.080Z,9.30
2023-02-12T10:19:22.667Z,9.20
2023-02-12T10:22:13.235Z,9.30
2023-02-12T10:25:10.960Z,9.40
2023-02-12T10:27:43.368Z,9.40
2023-02-12T10:30:41.726Z,9.50
2023-02-12T10:33:19.200Z,9.60
2023-02-12T10:36:02.677Z,9.60
2023-02-12T10:38:35.153Z,9.60
2023-02-12T10:41:02.746Z,9.60
2023-02-12T10:43:30.336Z,9.60
2023-02-12T10:45:58.035Z,9.70
2023-02-12T10:48:30.053Z,9.70
2023-02-12T10:51:06.022Z,9.80
2023-02-12T10:53:32.739Z,9.90
2023-02-12T10:56:29.349Z,10.00
2023-02-12T10:59:02.712Z,9.90
2023-02-12T11:01:35.425Z,9.90
2023-02-12T11:04:22.933Z,10.00
2023-02-12T11:07:04.864Z,10.00
2023-02-12T11:09:48.161Z,10.20
2023-02-12T11:12:40.971Z,10.40
2023-02-12T11:15:15.264Z,10.40
2023-02-12T11:17:45.195Z,10.50
2023-02-12T11:20:17.807Z,10.50
2023-02-12T11:23:00.480Z,10.50
2023-02-12T11:25:33.902Z,10.50
2023-02-12T11:28:21.071Z,10.60
2023-02-12T11:30:50.658Z,10.50
2023-02-12T11:33:22.017Z,10.50
2023-02-12T11:35:58.584Z,10.50
2023-02-12T11:38:33.661Z,10.60
2023-02-12T11:41:05.141Z,10.60
2023-02-12T11:43:38.395Z,10.60
2023-02-12T11:46:08.538Z,10.50
2023-02-12T11:48:39.914Z,10.60
2023-02-12T11:51:10.036Z,10.70
2023-02-12T11:53:46.647Z,10.80
2023-02-12T11:56:14.953Z,10.70
2023-02-12T12:01:19.607Z,10.80
2023-02-12T12:03:53.871Z,10.80
2023-02-12T12:06:33.099Z,10.80
2023-02-12T12:09:17.877Z,10.80
2023-02-12T12:11:44.541Z,10.70
2023-02-12T12:14:20.657Z,10.80
2023-02-12T12:17:18.328Z,10.90
2023-02-12T12:20:11.315Z,10.90
2023-02-12T12:22:51.705Z,11.00
2023-02-12T12:25:30.762Z,11.10
2023-02-12T12:30:52.441Z,11.30
2023-02-12T12:33:38.324Z,11.30
2023-02-12T12:36:14.203Z,11.20
2023-02-12T12:38:49.898Z,11.00
2023-02-12T12:41:34.861Z,11.00
2023-02-12T12:44:27.318Z,10.90
2023-02-12T12:47:16.368Z,10.80
2023-02-12T12:50:02.306Z,10.90
2023-02-12T12:53:06.516Z,10.90
2023-02-12T12:55:50.825Z,11.00
2023-02-12T12:58:40.584Z,11.10
2023-02-12T13:01:26.328Z,11.20
2023-02-12T13:04:22.105Z,11.20
2023-02-12T13:09:45.726Z,11.00
2023-02-12T13:20:11.479Z,11.00
2023-02-12T13:22:53.508Z,11.10
2023-02-12T13:25:24.857Z,11.20
2023-02-12T13:27:55.861Z,11.30
2023-02-12T13:30:32.459Z,11.30
2023-02-12T13:33:12.939Z,11.40
2023-02-12T13:35:46.113Z,11.40
2023-02-12T13:40:49.643Z,11.50
2023-02-12T13:43:16.347Z,11.40
2023-02-12T13:45:51.916Z,11.30
2023-02-12T13:48:33.507Z,11.20
2023-02-12T13:51:38.947Z,11.20
2023-02-12T13:54:35.537Z,11.20
2023-02-12T13:57:07.690Z,11.20
2023-02-12T13:59:36.544Z,11.20
2023-02-12T14:02:25.073Z,11.10
2023-02-12T14:05:03.133Z,11.10
2023-02-12T14:07:46.631Z,11.10
2023-02-12T14:10:38.269Z,11.10
2023-02-12T14:13:24.534Z,11.10
2023-02-12T14:15:54.352Z,11.00
2023-02-12T14:18:28.189Z,11.00
2023-02-12T14:21:19.322Z,11.00
2023-02-12T14:23:50.632Z,11.10
2023-02-12T14:26:20.135Z,11.00
2023-02-12T14:28:54.875Z,11.00
2023-02-12T14:31:27.443Z,11.00
2023-02-12T14:34:08.565Z,11.00
2023-02-12T14:36:39.016Z,11.00
2023-02-12T14:39:21.200Z,11.00
2023-02-12T14:41:57.859Z,10.90
2023-02-12T14:44:26.698Z,10.90
2023-02-12T14:46:54.291Z,10.90
2023-02-12T14:49:29.984Z,10.90
2023-02-12T14:52:07.579Z,10.90
2023-02-12T14:54:41.569Z,11.00
2023-02-12T14:57:22.440Z,10.90
2023-02-12T14:59:52.747Z,10.90
2023-02-12T15:02:32.468Z,10.90
2023-02-12T15:05:20.411Z,10.90
2023-02-12T15:08:01.762Z,11.00
2023-02-12T15:10:49.162Z,11.00
2023-02-12T15:13:43.720Z,11.00
2023-02-12T15:16:24.007Z,11.00
2023-02-12T15:19:06.619Z,10.90
2023-02-12T15:21:35.361Z,11.00
2023-02-12T15:24:13.940Z,10.90
2023-02-12T15:26:48.129Z,10.90
2023-02-12T15:29:32.916Z,10.90
2023-02-12T15:32:02.410Z,10.80
2023-02-12T15:34:32.869Z,10.80
2023-02-12T15:37:06.020Z,10.80
2023-02-12T15:39:47.956Z,10.80
2023-02-12T15:42:52.432Z,10.90
2023-02-12T15:45:22.797Z,10.80
2023-02-12T15:48:18.491Z,10.80
2023-02-12T15:51:00.510Z,10.80
2023-02-12T15:53:30.681Z,10.80
2023-02-12T15:55:59.089Z,10.80
2023-02-12T15:58:30.589Z,10.70
2023-02-12T16:01:03.284Z,10.70
2023-02-12T16:03:33.268Z,10.70
2023-02-12T16:06:11.112Z,10.70
2023-02-12T16:08:41.283Z,10.70
2023-02-12T16:11:16.521Z,10.60
2023-02-12T16:13:45.798Z,10.60
2023-02-12T16:16:12.463Z,10.60
2023-02-12T16:18:40.457Z,10.60
2023-02-12T16:21:16.020Z,10.50
2023-02-12T16:23:46.830Z,10.50
2023-02-12T16:26:24.801Z,10.50
2023-02-12T16:28:54.965Z,10.50
2023-02-12T16:31:22.322Z,10.40
2023-02-12T16:33:53.289Z,10.40
2023-02-12T16:36:19.969Z,10.40
2023-02-12T16:38:50.175Z,10.40
2023-02-12T16:41:26.086Z,10.40
2023-02-12T16:44:01.906Z,10.30
2023-02-12T16:46:34.660Z,10.30
2023-02-12T16:49:06.307Z,10.30
2023-02-12T16:51:38.079Z,10.30
2023-02-12T16:54:26.193Z,10.20
2023-02-12T16:56:53.055Z,10.20
2023-02-12T16:59:22.439Z,10.20
2023-02-12T17:02:04.856Z,10.20
2023-02-12T17:04:31.688Z,10.20
2023-02-12T17:07:00.908Z,10.10
2023-02-12T17:09:29.668Z,10.10
2023-02-12T17:11:57.361Z,10.10
2023-02-12T17:14:24.089Z,10.10
2023-02-12T17:16:53.312Z,10.10
2023-02-12T17:19:24.726Z,10.10
2023-02-12T17:21:51.925Z,10.10
2023-02-12T17:24:23.160Z,10.00
2023-02-12T17:26:54.283Z,10.00
2023-02-12T17:29:22.903Z,10.00
2023-02-12T17:31:53.493Z,10.00
2023-02-12T17:34:20.556Z,10.00
2023-02-12T17:36:47.540Z,9.90
2023-02-12T17:39:15.467Z,9.90
2023-02-12T17:41:44.126Z,9.90
2023-02-12T17:44:13.912Z,9.90
2023-02-12T17:46:41.017Z,9.90
2023-02-12T17:49:10.352Z,9.80
2023-02-12T17:51:37.207Z,9.80
2023-02-12T17:54:04.547Z,9.80
2023-02-12T17:56:31.424Z,9.80
2023-02-12T17:59:03.136Z,9.80
2023-02-12T18:01:30.067Z,9.80
2023-02-12T18:04:01.946Z,9.80
2023-02-12T18:06:32.228Z,9.80
2023-02-12T18:09:01.601Z,9.80
2023-02-12T18:11:32.882Z,9.70
2023-02-12T18:14:00.535Z,9.80
2023-02-12T18:16:32.005Z,9.70
2023-02-12T18:19:00.956Z,9.70
2023-02-12T18:21:28.128Z,9.70
2023-02-12T18:23:54.938Z,9.70
2023-02-12T18:26:22.858Z,9.70
2023-02-12T18:28:49.960Z,9.70
2023-02-12T18:31:19.528Z,9.70
2023-02-12T18:33:46.477Z,9.70
2023-02-12T18:36:18.876Z,9.70
2023-02-12T18:38:47.616Z,9.70
2023-02-12T18:41:23.580Z,9.60
2023-02-12T18:43:50.619Z,9.60
2023-02-12T18:46:33.014Z,9.70
2023-02-12T18:49:00.908Z,9.70
2023-02-12T18:51:30.814Z,9.60
2023-02-12T18:54:01.472Z,9.70
2023-02-12T18:56:33.208Z,9.70
2023-02-12T18:59:05.208Z,9.70
2023-02-12T19:01:35.619Z,9.70
2023-02-12T19:04:04.612Z,9.70
2023-02-12T19:06:32.425Z,9.70
2023-02-12T19:09:01.743Z,9.70
2023-02-12T19:11:31.424Z,9.70
2023-02-12T19:13:58.875Z,9.70
2023-02-12T19:16:28.508Z,9.70
2023-02-12T19:18:58.429Z,9.70
2023-02-12T19:21:27.959Z,9.70
2023-02-12T19:23:58.616Z,9.70
2023-02-12T19:26:31.375Z,9.70
2023-02-12T19:28:58.801Z,9.70
2023-02-12T19:31:37.946Z,9.70
2023-02-12T19:34:07.743Z,9.80
2023-02-12T19:36:36.455Z,9.80
2023-02-12T19:39:06.005Z,9.80
2023-02-12T19:41:40.550Z,9.70
2023-02-12T19:44:10.842Z,9.70
2023-02-12T19:46:39.234Z,9.70
2023-02-12T19:49:06.840Z,9.80
2023-02-12T19:51:33.654Z,9.70
2023-02-12T19:54:06.799Z,9.70
2023-02-12T19:56:35.468Z,9.70
2023-02-12T19:59:02.702Z,9.70
2023-02-12T20:01:32.302Z,9.70
2023-02-12T20:04:01.822Z,9.70
2023-02-12T20:06:31.878Z,9.70
2023-02-12T20:08:58.620Z,9.60
2023-02-12T20:11:31.887Z,9.60
2023-02-12T20:13:59.232Z,9.60
2023-02-12T20:16:33.964Z,9.60
2023-02-12T20:19:06.522Z,9.70
2023-02-12T20:21:33.542Z,9.60
2023-02-12T20:24:01.767Z,9.60
2023-02-12T20:26:30.309Z,9.60
2023-02-12T20:28:57.605Z,9.60
2023-02-12T20:31:28.468Z,9.60
2023-02-12T20:33:57.699Z,9.60
2023-02-12T20:36:25.220Z,9.50
2023-02-12T20:38:55.904Z,9.60
2023-02-12T20:41:25.940Z,9.50
2023-02-12T20:43:53.124Z,9.50
2023-02-12T20:46:22.350Z,9.50
2023-02-12T20:48:52.356Z,9.60
2023-02-12T20:51:21.938Z,9.50
2023-02-12T20:53:49.705Z,9.50
2023-02-12T20:56:20.103Z,9.50
2023-02-12T20:58:49.832Z,9.50
2023-02-12T21:01:18.276Z,9.50
2023-02-12T21:03:48.482Z,9.50
2023-02-12T21:06:17.545Z,9.50
2023-02-12T21:08:44.431Z,9.50
2023-02-12T21:11:17.340Z,9.50
2023-02-12T21:13:58.785Z,9.50
2023-02-12T21:16:32.814Z,9.60
2023-02-12T21:19:00.006Z,9.50
2023-02-12T21:21:31.870Z,9.50
2023-02-12T21:24:03.325Z,9.50
2023-02-12T21:26:32.131Z,9.50
2023-02-12T21:29:00.317Z,9.50
2023-02-12T21:31:29.764Z,9.50
2023-02-12T21:33:58.287Z,9.60
2023-02-12T21:36:31.004Z,9.50
2023-02-12T21:38:58.073Z,9.50
2023-02-12T21:41:27.984Z,9.50
2023-02-12T21:43:58.517Z,9.50
2023-02-12T21:46:26.109Z,9.50
2023-02-12T21:48:53.054Z,9.40
2023-02-12T21:51:41.073Z,9.50
2023-02-12T21:54:10.805Z,9.40
2023-02-12T21:56:42.767Z,9.50
2023-02-12T21:59:09.946Z,9.50
2023-02-12T22:01:40.812Z,9.50
2023-02-12T22:04:08.278Z,9.50
2023-02-12T22:06:40.355Z,9.50
2023-02-12T22:09:10.936Z,9.50
2023-02-12T22:11:39.301Z,9.50
2023-02-12T22:14:11.500Z,9.40
2023-02-12T22:16:38.444Z,9.40
2023-02-12T22:19:05.687Z,9.40
2023-02-12T22:21:35.497Z,9.50
2023-02-12T22:24:04.991Z,9.40
2023-02-12T22:26:32.641Z,9.40
2023-02-12T22:29:06.636Z,9.30
2023-02-12T22:31:36.494Z,9.30
2023-02-12T22:34:04.924Z,9.30
2023-02-12T22:36:33.897Z,9.30
2023-02-12T22:39:03.665Z,9.30
2023-02-12T22:41:30.936Z,9.30
2023-02-12T22:44:05.022Z,9.40
2023-02-12T22:46:36.036Z,9.30
2023-02-12T22:49:05.461Z,9.30
2023-02-12T22:51:32.807Z,9.40
2023-02-12T22:54:02.266Z,9.30
2023-02-12T22:56:31.465Z,9.20
2023-02-12T22:59:01.656Z,9.30
2023-02-12T23:01:31.444Z,9.30
2023-02-12T23:03:58.442Z,9.20
2023-02-12T23:06:28.228Z,9.30
2023-02-12T23:08:59.358Z,9.30
2023-02-12T23:11:28.727Z,9.30
2023-02-12T23:13:58.558Z,9.30
2023-02-12T23:16:25.720Z,9.30
2023-02-12T23:19:04.112Z,9.40
2023-02-12T23:21:31.867Z,9.30
2023-02-12T23:23:59.179Z,9.30
2023-02-12T23:26:26.441Z,9.30
2023-02-12T23:28:53.397Z,9.30
2023-02-12T23:31:20.308Z,9.30
2023-02-12T23:33:47.084Z,9.40
2023-02-12T23:36:14.170Z,9.40
2023-02-12T23:38:43.151Z,9.30
2023-02-12T23:41:10.056Z,9.30
2023-02-12T23:43:38.907Z,9.30
2023-02-12T23:46:05.881Z,9.30
2023-02-12T23:48:32.603Z,9.30
2023-02-12T23:51:01.834Z,9.30
2023-02-12T23:53:28.702Z,9.30
2023-02-12T23:55:55.389Z,9.30
2023-02-12T23:58:22.231Z,9.30
